sensor_id;sensor_type;location;lat;lon;timestamp;P1;durP1;ratioP1;P2;durP2;ratioP2
75818;SDS011;64453;51.944;9.796;2024-02-21T00:00:47;4.90;;;3.23;;
75818;SDS011;64453;51.944;9.796;2024-02-21T00:03:16;9.30;;;3.80;;
75818;SDS011;64453;51.944;9.796;2024-02-21T00:05:44;6.60;;;4.27;;
75818;SDS011;64453;51.944;9.796;2024-02-21T00:08:11;13.47;;;5.23;;
75818;SDS011;64453;51.944;9.796;2024-02-21T00:10:38;5.70;;;4.37;;
75818;SDS011;64453;51.944;9.796;2024-02-21T00:13:06;11.80;;;4.50;;
75818;SDS011;64453;51.944;9.796;2024-02-21T00:15:34;18.03;;;6.37;;
75818;SDS011;64453;51.944;9.796;2024-02-21T00:18:02;10.83;;;5.23;;
75818;SDS011;64453;51.944;9.796;2024-02-21T00:20:32;13.60;;;6.20;;
75818;SDS011;64453;51.944;9.796;2024-02-21T00:22:59;19.97;;;6.30;;
75818;SDS011;64453;51.944;9.796;2024-02-21T00:25:26;11.73;;;6.03;;
75818;SDS011;64453;51.944;9.796;2024-02-21T00:27:53;14.00;;;6.63;;
75818;SDS011;64453;51.944;9.796;2024-02-21T00:30:21;17.47;;;6.43;;
75818;SDS011;64453;51.944;9.796;2024-02-21T00:32:48;15.23;;;6.43;;
75818;SDS011;64453;51.944;9.796;2024-02-21T00:35:15;11.73;;;6.80;;
75818;SDS011;64453;51.944;9.796;2024-02-21T00:37:42;9.80;;;6.30;;
75818;SDS011;64453;51.944;9.796;2024-02-21T00:40:09;13.27;;;7.07;;
75818;SDS011;64453;51.944;9.796;2024-02-21T00:42:37;9.00;;;5.90;;
75818;SDS011;64453;51.944;9.796;2024-02-21T00:45:06;12.57;;;6.90;;
75818;SDS011;64453;51.944;9.796;2024-02-21T00:47:35;11.83;;;7.00;;
75818;SDS011;64453;51.944;9.796;2024-02-21T00:50:04;9.23;;;6.30;;
75818;SDS011;64453;51.944;9.796;2024-02-21T00:52:32;12.63;;;5.80;;
75818;SDS011;64453;51.944;9.796;2024-02-21T00:55:00;13.10;;;6.60;;
75818;SDS011;64453;51.944;9.796;2024-02-21T00:57:27;10.77;;;6.97;;
75818;SDS011;64453;51.944;9.796;2024-02-21T00:59:55;15.50;;;7.80;;
75818;SDS011;64453;51.944;9.796;2024-02-21T01:02:22;12.00;;;7.43;;
75818;SDS011;64453;51.944;9.796;2024-02-21T01:04:50;12.57;;;6.33;;
75818;SDS011;64453;51.944;9.796;2024-02-21T01:07:18;14.80;;;7.70;;
75818;SDS011;64453;51.944;9.796;2024-02-21T01:09:45;13.70;;;7.40;;
75818;SDS011;64453;51.944;9.796;2024-02-21T01:12:12;11.17;;;6.53;;
75818;SDS011;64453;51.944;9.796;2024-02-21T01:14:39;16.57;;;7.27;;
75818;SDS011;64453;51.944;9.796;2024-02-21T01:17:05;16.90;;;6.60;;
75818;SDS011;64453;51.944;9.796;2024-02-21T01:19:33;12.20;;;7.40;;
75818;SDS011;64453;51.944;9.796;2024-02-21T01:22:01;13.10;;;7.43;;
75818;SDS011;64453;51.944;9.796;2024-02-21T01:24:29;10.73;;;6.80;;
75818;SDS011;64453;51.944;9.796;2024-02-21T01:26:56;14.90;;;7.57;;
75818;SDS011;64453;51.944;9.796;2024-02-21T01:29:23;15.37;;;7.67;;
75818;SDS011;64453;51.944;9.796;2024-02-21T01:31:50;10.13;;;8.10;;
75818;SDS011;64453;51.944;9.796;2024-02-21T01:34:16;12.30;;;7.77;;
75818;SDS011;64453;51.944;9.796;2024-02-21T01:40:12;14.00;;;8.03;;
75818;SDS011;64453;51.944;9.796;2024-02-21T01:42:39;12.47;;;7.93;;
75818;SDS011;64453;51.944;9.796;2024-02-21T01:45:06;10.93;;;7.40;;
75818;SDS011;64453;51.944;9.796;2024-02-21T01:47:34;11.50;;;7.93;;
75818;SDS011;64453;51.944;9.796;2024-02-21T01:50:07;14.00;;;7.37;;
75818;SDS011;64453;51.944;9.796;2024-02-21T01:52:35;12.00;;;7.70;;
75818;SDS011;64453;51.944;9.796;2024-02-21T01:55:04;12.03;;;6.57;;
75818;SDS011;64453;51.944;9.796;2024-02-21T01:57:34;11.37;;;7.60;;
75818;SDS011;64453;51.944;9.796;2024-02-21T02:00:01;12.03;;;8.03;;
75818;SDS011;64453;51.944;9.796;2024-02-21T02:02:29;13.67;;;7.53;;
75818;SDS011;64453;51.944;9.796;2024-02-21T02:04:58;14.53;;;8.63;;
75818;SDS011;64453;51.944;9.796;2024-02-21T02:07:25;11.57;;;7.43;;
75818;SDS011;64453;51.944;9.796;2024-02-21T02:09:52;11.87;;;7.60;;
75818;SDS011;64453;51.944;9.796;2024-02-21T02:12:19;11.30;;;7.77;;
75818;SDS011;64453;51.944;9.796;2024-02-21T02:14:58;8.83;;;7.90;;
75818;SDS011;64453;51.944;9.796;2024-02-21T02:17:25;15.17;;;7.80;;
75818;SDS011;64453;51.944;9.796;2024-02-21T02:19:52;9.47;;;6.77;;
75818;SDS011;64453;51.944;9.796;2024-02-21T02:22:20;16.13;;;8.00;;
75818;SDS011;64453;51.944;9.796;2024-02-21T02:25:03;12.90;;;7.43;;
75818;SDS011;64453;51.944;9.796;2024-02-21T02:31:38;13.20;;;7.10;;
75818;SDS011;64453;51.944;9.796;2024-02-21T02:34:05;10.20;;;6.93;;
75818;SDS011;64453;51.944;9.796;2024-02-21T02:36:33;13.83;;;7.33;;
75818;SDS011;64453;51.944;9.796;2024-02-21T02:39:01;13.27;;;8.00;;
75818;SDS011;64453;51.944;9.796;2024-02-21T02:41:29;10.37;;;7.33;;
75818;SDS011;64453;51.944;9.796;2024-02-21T02:43:56;14.13;;;7.53;;
75818;SDS011;64453;51.944;9.796;2024-02-21T02:46:23;12.70;;;7.73;;
75818;SDS011;64453;51.944;9.796;2024-02-21T02:48:50;9.40;;;6.80;;
75818;SDS011;64453;51.944;9.796;2024-02-21T02:51:17;14.00;;;7.70;;
75818;SDS011;64453;51.944;9.796;2024-02-21T02:53:43;13.40;;;7.37;;
75818;SDS011;64453;51.944;9.796;2024-02-21T02:56:13;13.63;;;9.07;;
75818;SDS011;64453;51.944;9.796;2024-02-21T02:58:43;9.67;;;7.30;;
75818;SDS011;64453;51.944;9.796;2024-02-21T03:01:11;13.00;;;7.83;;
75818;SDS011;64453;51.944;9.796;2024-02-21T03:03:38;19.43;;;8.67;;
75818;SDS011;64453;51.944;9.796;2024-02-21T03:06:05;13.10;;;7.77;;
75818;SDS011;64453;51.944;9.796;2024-02-21T03:08:32;13.90;;;8.47;;
75818;SDS011;64453;51.944;9.796;2024-02-21T03:10:59;10.47;;;7.27;;
75818;SDS011;64453;51.944;9.796;2024-02-21T03:13:26;14.07;;;8.77;;
75818;SDS011;64453;51.944;9.796;2024-02-21T03:15:55;13.77;;;8.60;;
75818;SDS011;64453;51.944;9.796;2024-02-21T03:18:22;13.30;;;7.90;;
75818;SDS011;64453;51.944;9.796;2024-02-21T03:20:49;14.40;;;8.23;;
75818;SDS011;64453;51.944;9.796;2024-02-21T03:23:16;12.20;;;7.50;;
75818;SDS011;64453;51.944;9.796;2024-02-21T03:25:43;11.97;;;7.63;;
75818;SDS011;64453;51.944;9.796;2024-02-21T03:28:10;17.27;;;8.60;;
75818;SDS011;64453;51.944;9.796;2024-02-21T03:30:37;10.50;;;7.33;;
75818;SDS011;64453;51.944;9.796;2024-02-21T03:33:05;17.20;;;8.50;;
75818;SDS011;64453;51.944;9.796;2024-02-21T03:35:33;14.97;;;7.27;;
75818;SDS011;64453;51.944;9.796;2024-02-21T03:38:00;11.57;;;8.07;;
75818;SDS011;64453;51.944;9.796;2024-02-21T03:40:26;11.13;;;8.40;;
75818;SDS011;64453;51.944;9.796;2024-02-21T03:42:53;12.73;;;8.27;;
75818;SDS011;64453;51.944;9.796;2024-02-21T03:45:20;11.50;;;7.10;;
75818;SDS011;64453;51.944;9.796;2024-02-21T03:47:47;9.93;;;7.60;;
75818;SDS011;64453;51.944;9.796;2024-02-21T03:50:18;12.60;;;7.80;;
75818;SDS011;64453;51.944;9.796;2024-02-21T03:52:45;8.90;;;6.77;;
75818;SDS011;64453;51.944;9.796;2024-02-21T03:55:13;8.83;;;7.00;;
75818;SDS011;64453;51.944;9.796;2024-02-21T03:57:40;9.17;;;7.80;;
75818;SDS011;64453;51.944;9.796;2024-02-21T04:00:07;12.10;;;6.63;;
75818;SDS011;64453;51.944;9.796;2024-02-21T04:02:37;9.97;;;7.10;;
75818;SDS011;64453;51.944;9.796;2024-02-21T04:05:04;10.67;;;7.57;;
75818;SDS011;64453;51.944;9.796;2024-02-21T04:07:32;9.80;;;6.57;;
75818;SDS011;64453;51.944;9.796;2024-02-21T04:09:59;13.03;;;7.60;;
75818;SDS011;64453;51.944;9.796;2024-02-21T04:12:27;10.03;;;6.60;;
75818;SDS011;64453;51.944;9.796;2024-02-21T04:14:54;13.87;;;6.90;;
75818;SDS011;64453;51.944;9.796;2024-02-21T04:17:21;7.83;;;6.70;;
75818;SDS011;64453;51.944;9.796;2024-02-21T04:19:48;10.20;;;6.70;;
75818;SDS011;64453;51.944;9.796;2024-02-21T04:22:15;15.07;;;6.60;;
75818;SDS011;64453;51.944;9.796;2024-02-21T04:24:44;16.13;;;6.33;;
75818;SDS011;64453;51.944;9.796;2024-02-21T04:27:11;10.97;;;6.20;;
75818;SDS011;64453;51.944;9.796;2024-02-21T04:29:38;7.00;;;5.97;;
75818;SDS011;64453;51.944;9.796;2024-02-21T04:32:05;12.67;;;7.13;;
75818;SDS011;64453;51.944;9.796;2024-02-21T04:34:34;8.83;;;7.37;;
75818;SDS011;64453;51.944;9.796;2024-02-21T04:37:01;11.90;;;6.77;;
75818;SDS011;64453;51.944;9.796;2024-02-21T04:39:29;13.77;;;7.20;;
75818;SDS011;64453;51.944;9.796;2024-02-21T04:41:57;8.70;;;6.50;;
75818;SDS011;64453;51.944;9.796;2024-02-21T04:44:24;10.20;;;6.70;;
75818;SDS011;64453;51.944;9.796;2024-02-21T04:46:51;8.90;;;7.30;;
75818;SDS011;64453;51.944;9.796;2024-02-21T04:49:19;11.63;;;7.13;;
75818;SDS011;64453;51.944;9.796;2024-02-21T04:51:46;10.70;;;6.67;;
75818;SDS011;64453;51.944;9.796;2024-02-21T04:54:13;11.60;;;6.60;;
75818;SDS011;64453;51.944;9.796;2024-02-21T04:56:40;10.87;;;5.93;;
75818;SDS011;64453;51.944;9.796;2024-02-21T04:59:09;7.80;;;5.50;;
75818;SDS011;64453;51.944;9.796;2024-02-21T05:01:36;12.30;;;6.07;;
75818;SDS011;64453;51.944;9.796;2024-02-21T05:04:04;9.70;;;6.90;;
75818;SDS011;64453;51.944;9.796;2024-02-21T05:06:36;11.27;;;6.27;;
75818;SDS011;64453;51.944;9.796;2024-02-21T05:09:04;6.93;;;6.10;;
75818;SDS011;64453;51.944;9.796;2024-02-21T05:11:31;9.63;;;6.33;;
75818;SDS011;64453;51.944;9.796;2024-02-21T05:13:58;8.30;;;6.10;;
75818;SDS011;64453;51.944;9.796;2024-02-21T05:16:27;8.87;;;6.13;;
75818;SDS011;64453;51.944;9.796;2024-02-21T05:18:54;11.73;;;6.67;;
75818;SDS011;64453;51.944;9.796;2024-02-21T05:21:21;8.17;;;5.90;;
75818;SDS011;64453;51.944;9.796;2024-02-21T05:23:49;8.33;;;5.47;;
75818;SDS011;64453;51.944;9.796;2024-02-21T05:26:19;6.60;;;5.87;;
75818;SDS011;64453;51.944;9.796;2024-02-21T05:28:47;11.00;;;6.67;;
75818;SDS011;64453;51.944;9.796;2024-02-21T05:31:14;7.83;;;6.40;;
75818;SDS011;64453;51.944;9.796;2024-02-21T05:33:43;9.53;;;5.70;;
75818;SDS011;64453;51.944;9.796;2024-02-21T05:36:11;12.03;;;5.90;;
75818;SDS011;64453;51.944;9.796;2024-02-21T05:38:38;9.40;;;5.83;;
75818;SDS011;64453;51.944;9.796;2024-02-21T05:41:05;11.50;;;6.60;;
75818;SDS011;64453;51.944;9.796;2024-02-21T05:43:32;11.00;;;7.47;;
75818;SDS011;64453;51.944;9.796;2024-02-21T05:45:59;13.30;;;7.23;;
75818;SDS011;64453;51.944;9.796;2024-02-21T05:48:26;12.03;;;6.30;;
75818;SDS011;64453;51.944;9.796;2024-02-21T05:50:55;8.73;;;6.20;;
75818;SDS011;64453;51.944;9.796;2024-02-21T05:53:22;10.93;;;6.17;;
75818;SDS011;64453;51.944;9.796;2024-02-21T05:55:49;10.23;;;5.63;;
75818;SDS011;64453;51.944;9.796;2024-02-21T05:58:16;11.93;;;6.40;;
75818;SDS011;64453;51.944;9.796;2024-02-21T06:00:42;10.57;;;7.37;;
75818;SDS011;64453;51.944;9.796;2024-02-21T06:03:10;9.20;;;6.40;;
75818;SDS011;64453;51.944;9.796;2024-02-21T06:05:37;7.37;;;6.00;;
75818;SDS011;64453;51.944;9.796;2024-02-21T06:08:06;10.13;;;6.27;;
75818;SDS011;64453;51.944;9.796;2024-02-21T06:10:34;9.80;;;6.30;;
75818;SDS011;64453;51.944;9.796;2024-02-21T06:13:01;7.90;;;5.60;;
75818;SDS011;64453;51.944;9.796;2024-02-21T06:15:28;10.67;;;6.33;;
75818;SDS011;64453;51.944;9.796;2024-02-21T06:17:55;6.00;;;5.33;;
75818;SDS011;64453;51.944;9.796;2024-02-21T06:20:22;11.10;;;5.97;;
75818;SDS011;64453;51.944;9.796;2024-02-21T06:22:49;10.10;;;5.93;;
75818;SDS011;64453;51.944;9.796;2024-02-21T06:25:17;9.43;;;5.87;;
75818;SDS011;64453;51.944;9.796;2024-02-21T06:27:44;12.57;;;6.67;;
75818;SDS011;64453;51.944;9.796;2024-02-21T06:30:16;9.90;;;6.03;;
75818;SDS011;64453;51.944;9.796;2024-02-21T06:32:43;12.50;;;6.40;;
75818;SDS011;64453;51.944;9.796;2024-02-21T06:35:10;13.40;;;6.33;;
75818;SDS011;64453;51.944;9.796;2024-02-21T06:37:37;10.10;;;5.33;;
75818;SDS011;64453;51.944;9.796;2024-02-21T06:40:05;8.97;;;5.43;;
75818;SDS011;64453;51.944;9.796;2024-02-21T06:42:35;10.87;;;5.73;;
75818;SDS011;64453;51.944;9.796;2024-02-21T06:45:02;8.80;;;5.57;;
75818;SDS011;64453;51.944;9.796;2024-02-21T06:47:30;9.73;;;5.77;;
75818;SDS011;64453;51.944;9.796;2024-02-21T06:49:57;10.83;;;5.77;;
75818;SDS011;64453;51.944;9.796;2024-02-21T06:52:24;13.03;;;6.57;;
75818;SDS011;64453;51.944;9.796;2024-02-21T06:54:52;13.57;;;6.10;;
75818;SDS011;64453;51.944;9.796;2024-02-21T06:57:19;10.17;;;6.50;;
75818;SDS011;64453;51.944;9.796;2024-02-21T06:59:47;10.60;;;5.57;;
75818;SDS011;64453;51.944;9.796;2024-02-21T07:02:14;7.43;;;5.17;;
75818;SDS011;64453;51.944;9.796;2024-02-21T07:04:41;9.37;;;5.80;;
75818;SDS011;64453;51.944;9.796;2024-02-21T07:07:09;12.23;;;6.00;;
75818;SDS011;64453;51.944;9.796;2024-02-21T07:09:36;13.53;;;5.80;;
75818;SDS011;64453;51.944;9.796;2024-02-21T07:12:03;8.60;;;5.27;;
75818;SDS011;64453;51.944;9.796;2024-02-21T07:14:31;12.47;;;6.00;;
75818;SDS011;64453;51.944;9.796;2024-02-21T07:17:00;9.07;;;5.17;;
75818;SDS011;64453;51.944;9.796;2024-02-21T07:19:28;11.50;;;6.00;;
75818;SDS011;64453;51.944;9.796;2024-02-21T07:21:55;11.30;;;5.60;;
75818;SDS011;64453;51.944;9.796;2024-02-21T07:24:23;7.20;;;4.73;;
75818;SDS011;64453;51.944;9.796;2024-02-21T07:26:49;7.23;;;5.80;;
75818;SDS011;64453;51.944;9.796;2024-02-21T07:29:17;10.73;;;5.60;;
75818;SDS011;64453;51.944;9.796;2024-02-21T07:31:44;7.77;;;4.73;;
75818;SDS011;64453;51.944;9.796;2024-02-21T07:34:18;9.43;;;5.70;;
75818;SDS011;64453;51.944;9.796;2024-02-21T07:36:46;9.70;;;5.30;;
75818;SDS011;64453;51.944;9.796;2024-02-21T07:39:13;12.53;;;5.07;;
75818;SDS011;64453;51.944;9.796;2024-02-21T07:41:40;7.73;;;5.60;;
75818;SDS011;64453;51.944;9.796;2024-02-21T07:44:10;10.93;;;5.77;;
75818;SDS011;64453;51.944;9.796;2024-02-21T07:46:37;8.77;;;4.90;;
75818;SDS011;64453;51.944;9.796;2024-02-21T07:49:04;7.43;;;5.33;;
75818;SDS011;64453;51.944;9.796;2024-02-21T07:51:32;9.67;;;5.80;;
75818;SDS011;64453;51.944;9.796;2024-02-21T07:54:01;7.33;;;5.53;;
75818;SDS011;64453;51.944;9.796;2024-02-21T07:56:29;9.73;;;5.60;;
75818;SDS011;64453;51.944;9.796;2024-02-21T07:58:56;12.83;;;5.47;;
75818;SDS011;64453;51.944;9.796;2024-02-21T08:01:23;11.63;;;5.80;;
75818;SDS011;64453;51.944;9.796;2024-02-21T08:03:50;8.93;;;5.20;;
75818;SDS011;64453;51.944;9.796;2024-02-21T08:06:17;5.87;;;4.27;;
75818;SDS011;64453;51.944;9.796;2024-02-21T08:08:46;11.17;;;5.10;;
75818;SDS011;64453;51.944;9.796;2024-02-21T08:11:13;7.07;;;4.80;;
75818;SDS011;64453;51.944;9.796;2024-02-21T08:13:40;9.90;;;4.73;;
75818;SDS011;64453;51.944;9.796;2024-02-21T08:16:07;9.10;;;5.07;;
75818;SDS011;64453;51.944;9.796;2024-02-21T08:18:34;7.43;;;4.20;;
75818;SDS011;64453;51.944;9.796;2024-02-21T08:21:03;7.90;;;4.90;;
75818;SDS011;64453;51.944;9.796;2024-02-21T08:23:30;7.63;;;5.43;;
75818;SDS011;64453;51.944;9.796;2024-02-21T08:25:59;11.90;;;5.40;;
75818;SDS011;64453;51.944;9.796;2024-02-21T08:28:30;13.13;;;5.40;;
75818;SDS011;64453;51.944;9.796;2024-02-21T08:30:59;8.10;;;5.10;;
75818;SDS011;64453;51.944;9.796;2024-02-21T08:33:27;5.40;;;4.30;;
75818;SDS011;64453;51.944;9.796;2024-02-21T08:35:55;12.53;;;4.90;;
75818;SDS011;64453;51.944;9.796;2024-02-21T08:38:21;7.00;;;4.50;;
75818;SDS011;64453;51.944;9.796;2024-02-21T08:40:49;9.40;;;4.33;;
75818;SDS011;64453;51.944;9.796;2024-02-21T08:43:17;8.43;;;4.37;;
75818;SDS011;64453;51.944;9.796;2024-02-21T08:45:44;8.43;;;4.40;;
75818;SDS011;64453;51.944;9.796;2024-02-21T08:48:11;5.70;;;3.80;;
75818;SDS011;64453;51.944;9.796;2024-02-21T08:50:38;5.27;;;3.93;;
75818;SDS011;64453;51.944;9.796;2024-02-21T08:53:06;7.53;;;4.47;;
75818;SDS011;64453;51.944;9.796;2024-02-21T08:55:34;5.53;;;3.80;;
75818;SDS011;64453;51.944;9.796;2024-02-21T08:58:01;5.57;;;3.77;;
75818;SDS011;64453;51.944;9.796;2024-02-21T09:00:31;7.73;;;4.20;;
75818;SDS011;64453;51.944;9.796;2024-02-21T09:02:58;6.83;;;4.17;;
75818;SDS011;64453;51.944;9.796;2024-02-21T09:05:25;7.50;;;3.67;;
75818;SDS011;64453;51.944;9.796;2024-02-21T09:07:53;6.67;;;3.60;;
75818;SDS011;64453;51.944;9.796;2024-02-21T09:10:20;5.20;;;3.53;;
75818;SDS011;64453;51.944;9.796;2024-02-21T09:12:48;4.83;;;3.83;;
75818;SDS011;64453;51.944;9.796;2024-02-21T09:15:15;5.00;;;3.37;;
75818;SDS011;64453;51.944;9.796;2024-02-21T09:17:44;8.13;;;3.70;;
75818;SDS011;64453;51.944;9.796;2024-02-21T09:20:11;5.97;;;3.67;;
75818;SDS011;64453;51.944;9.796;2024-02-21T09:22:41;8.50;;;3.73;;
75818;SDS011;64453;51.944;9.796;2024-02-21T09:25:08;7.10;;;3.77;;
75818;SDS011;64453;51.944;9.796;2024-02-21T09:27:37;3.73;;;3.40;;
75818;SDS011;64453;51.944;9.796;2024-02-21T09:30:11;4.00;;;3.00;;
75818;SDS011;64453;51.944;9.796;2024-02-21T09:32:38;6.77;;;3.93;;
75818;SDS011;64453;51.944;9.796;2024-02-21T09:35:07;7.50;;;3.73;;
75818;SDS011;64453;51.944;9.796;2024-02-21T09:37:35;7.93;;;4.27;;
75818;SDS011;64453;51.944;9.796;2024-02-21T09:40:03;3.43;;;3.07;;
75818;SDS011;64453;51.944;9.796;2024-02-21T09:42:37;6.00;;;3.87;;
75818;SDS011;64453;51.944;9.796;2024-02-21T09:45:07;5.30;;;3.33;;
75818;SDS011;64453;51.944;9.796;2024-02-21T09:47:40;7.50;;;4.40;;
75818;SDS011;64453;51.944;9.796;2024-02-21T09:50:34;6.07;;;3.90;;
75818;SDS011;64453;51.944;9.796;2024-02-21T09:53:02;4.33;;;3.37;;
75818;SDS011;64453;51.944;9.796;2024-02-21T09:55:32;4.53;;;3.27;;
75818;SDS011;64453;51.944;9.796;2024-02-21T09:58:01;7.40;;;3.70;;
75818;SDS011;64453;51.944;9.796;2024-02-21T10:00:31;5.37;;;3.70;;
75818;SDS011;64453;51.944;9.796;2024-02-21T10:02:58;4.20;;;3.10;;
75818;SDS011;64453;51.944;9.796;2024-02-21T10:05:25;9.20;;;4.23;;
75818;SDS011;64453;51.944;9.796;2024-02-21T10:07:54;6.53;;;3.10;;
75818;SDS011;64453;51.944;9.796;2024-02-21T10:10:22;6.10;;;3.63;;
75818;SDS011;64453;51.944;9.796;2024-02-21T10:12:50;3.70;;;3.40;;
75818;SDS011;64453;51.944;9.796;2024-02-21T10:15:20;8.93;;;3.70;;
75818;SDS011;64453;51.944;9.796;2024-02-21T10:17:48;5.77;;;3.53;;
75818;SDS011;64453;51.944;9.796;2024-02-21T10:20:16;6.37;;;3.30;;
75818;SDS011;64453;51.944;9.796;2024-02-21T10:22:43;3.10;;;2.60;;
75818;SDS011;64453;51.944;9.796;2024-02-21T10:25:12;6.67;;;3.50;;
75818;SDS011;64453;51.944;9.796;2024-02-21T10:27:39;5.23;;;2.90;;
75818;SDS011;64453;51.944;9.796;2024-02-21T10:30:08;8.07;;;3.90;;
75818;SDS011;64453;51.944;9.796;2024-02-21T10:32:48;6.87;;;3.27;;
75818;SDS011;64453;51.944;9.796;2024-02-21T10:35:25;5.50;;;3.47;;
75818;SDS011;64453;51.944;9.796;2024-02-21T10:37:55;8.17;;;3.40;;
75818;SDS011;64453;51.944;9.796;2024-02-21T10:40:25;5.57;;;3.20;;
75818;SDS011;64453;51.944;9.796;2024-02-21T10:42:56;6.30;;;4.13;;
75818;SDS011;64453;51.944;9.796;2024-02-21T10:45:28;4.50;;;3.43;;
75818;SDS011;64453;51.944;9.796;2024-02-21T10:48:01;4.63;;;3.60;;
75818;SDS011;64453;51.944;9.796;2024-02-21T10:50:36;6.70;;;3.00;;
75818;SDS011;64453;51.944;9.796;2024-02-21T10:53:22;5.60;;;3.73;;
75818;SDS011;64453;51.944;9.796;2024-02-21T10:56:01;6.53;;;2.60;;
75818;SDS011;64453;51.944;9.796;2024-02-21T10:58:49;9.80;;;3.60;;
75818;SDS011;64453;51.944;9.796;2024-02-21T11:01:17;7.00;;;3.60;;
75818;SDS011;64453;51.944;9.796;2024-02-21T11:03:45;7.93;;;3.37;;
75818;SDS011;64453;51.944;9.796;2024-02-21T11:06:15;4.47;;;4.03;;
75818;SDS011;64453;51.944;9.796;2024-02-21T11:12:46;5.17;;;4.40;;
75818;SDS011;64453;51.944;9.796;2024-02-21T11:19:18;7.17;;;5.30;;
75818;SDS011;64453;51.944;9.796;2024-02-21T11:21:48;6.67;;;5.60;;
75818;SDS011;64453;51.944;9.796;2024-02-21T11:24:25;7.00;;;6.10;;
75818;SDS011;64453;51.944;9.796;2024-02-21T11:26:54;5.27;;;4.70;;
75818;SDS011;64453;51.944;9.796;2024-02-21T11:29:25;5.80;;;5.10;;
75818;SDS011;64453;51.944;9.796;2024-02-21T11:31:55;5.53;;;4.80;;
75818;SDS011;64453;51.944;9.796;2024-02-21T11:34:22;6.00;;;5.40;;
75818;SDS011;64453;51.944;9.796;2024-02-21T11:39:48;5.27;;;4.77;;
75818;SDS011;64453;51.944;9.796;2024-02-21T11:46:21;5.77;;;4.40;;
75818;SDS011;64453;51.944;9.796;2024-02-21T11:48:48;5.97;;;4.90;;
75818;SDS011;64453;51.944;9.796;2024-02-21T11:54:44;5.40;;;4.63;;
75818;SDS011;64453;51.944;9.796;2024-02-21T11:57:11;7.30;;;4.40;;
75818;SDS011;64453;51.944;9.796;2024-02-21T11:59:39;8.13;;;4.73;;
75818;SDS011;64453;51.944;9.796;2024-02-21T12:02:08;5.37;;;4.10;;
75818;SDS011;64453;51.944;9.796;2024-02-21T12:04:36;5.40;;;4.07;;
75818;SDS011;64453;51.944;9.796;2024-02-21T12:07:03;4.80;;;3.10;;
75818;SDS011;64453;51.944;9.796;2024-02-21T12:09:31;9.07;;;4.60;;
75818;SDS011;64453;51.944;9.796;2024-02-21T12:12:04;6.80;;;3.90;;
75818;SDS011;64453;51.944;9.796;2024-02-21T12:14:33;11.80;;;3.80;;
75818;SDS011;64453;51.944;9.796;2024-02-21T12:17:02;6.23;;;3.67;;
75818;SDS011;64453;51.944;9.796;2024-02-21T12:19:32;4.73;;;3.60;;
75818;SDS011;64453;51.944;9.796;2024-02-21T12:22:00;4.13;;;2.90;;
75818;SDS011;64453;51.944;9.796;2024-02-21T12:24:30;3.83;;;2.97;;
75818;SDS011;64453;51.944;9.796;2024-02-21T12:26:57;8.20;;;2.63;;
75818;SDS011;64453;51.944;9.796;2024-02-21T12:29:25;4.37;;;3.00;;
75818;SDS011;64453;51.944;9.796;2024-02-21T12:31:52;4.13;;;2.80;;
75818;SDS011;64453;51.944;9.796;2024-02-21T12:34:20;3.87;;;2.63;;
75818;SDS011;64453;51.944;9.796;2024-02-21T12:36:50;4.33;;;2.93;;
75818;SDS011;64453;51.944;9.796;2024-02-21T12:39:17;2.50;;;2.20;;
75818;SDS011;64453;51.944;9.796;2024-02-21T12:41:45;5.87;;;2.77;;
75818;SDS011;64453;51.944;9.796;2024-02-21T12:44:12;3.63;;;1.90;;
75818;SDS011;64453;51.944;9.796;2024-02-21T12:46:39;3.33;;;2.07;;
75818;SDS011;64453;51.944;9.796;2024-02-21T12:49:06;4.63;;;1.87;;
75818;SDS011;64453;51.944;9.796;2024-02-21T12:51:33;7.80;;;3.27;;
75818;SDS011;64453;51.944;9.796;2024-02-21T12:54:02;1.80;;;1.20;;
75818;SDS011;64453;51.944;9.796;2024-02-21T12:56:29;4.93;;;2.47;;
75818;SDS011;64453;51.944;9.796;2024-02-21T12:58:57;2.30;;;1.97;;
75818;SDS011;64453;51.944;9.796;2024-02-21T13:01:24;2.70;;;1.97;;
75818;SDS011;64453;51.944;9.796;2024-02-21T13:03:51;5.20;;;2.50;;
75818;SDS011;64453;51.944;9.796;2024-02-21T13:06:24;4.60;;;1.93;;
75818;SDS011;64453;51.944;9.796;2024-02-21T13:08:51;5.13;;;2.30;;
75818;SDS011;64453;51.944;9.796;2024-02-21T13:11:20;4.10;;;2.20;;
75818;SDS011;64453;51.944;9.796;2024-02-21T13:13:47;2.50;;;1.77;;
75818;SDS011;64453;51.944;9.796;2024-02-21T13:16:14;3.93;;;1.83;;
75818;SDS011;64453;51.944;9.796;2024-02-21T13:18:41;2.20;;;2.00;;
75818;SDS011;64453;51.944;9.796;2024-02-21T13:21:10;5.70;;;1.77;;
75818;SDS011;64453;51.944;9.796;2024-02-21T13:23:37;5.00;;;2.17;;
75818;SDS011;64453;51.944;9.796;2024-02-21T13:26:03;1.80;;;1.70;;
75818;SDS011;64453;51.944;9.796;2024-02-21T13:28:32;3.70;;;1.77;;
75818;SDS011;64453;51.944;9.796;2024-02-21T13:30:58;4.30;;;1.80;;
75818;SDS011;64453;51.944;9.796;2024-02-21T13:33:25;3.53;;;1.73;;
75818;SDS011;64453;51.944;9.796;2024-02-21T13:35:53;6.47;;;2.00;;
75818;SDS011;64453;51.944;9.796;2024-02-21T13:38:20;4.00;;;1.70;;
75818;SDS011;64453;51.944;9.796;2024-02-21T13:40:49;4.40;;;2.20;;
75818;SDS011;64453;51.944;9.796;2024-02-21T13:43:16;3.63;;;1.50;;
75818;SDS011;64453;51.944;9.796;2024-02-21T13:45:55;3.50;;;1.90;;
75818;SDS011;64453;51.944;9.796;2024-02-21T13:51:34;5.13;;;2.17;;
75818;SDS011;64453;51.944;9.796;2024-02-21T13:54:02;2.63;;;1.70;;
75818;SDS011;64453;51.944;9.796;2024-02-21T13:56:30;3.30;;;2.03;;
75818;SDS011;64453;51.944;9.796;2024-02-21T13:58:57;3.20;;;1.70;;
75818;SDS011;64453;51.944;9.796;2024-02-21T14:05:07;4.57;;;1.80;;
75818;SDS011;64453;51.944;9.796;2024-02-21T14:07:35;4.23;;;1.80;;
75818;SDS011;64453;51.944;9.796;2024-02-21T14:10:02;7.27;;;1.80;;
75818;SDS011;64453;51.944;9.796;2024-02-21T14:13:45;2.70;;;1.83;;
75818;SDS011;64453;51.944;9.796;2024-02-21T14:16:12;3.80;;;1.87;;
75818;SDS011;64453;51.944;9.796;2024-02-21T14:18:39;3.93;;;1.80;;
75818;SDS011;64453;51.944;9.796;2024-02-21T14:21:08;1.67;;;1.57;;
75818;SDS011;64453;51.944;9.796;2024-02-21T14:23:36;2.90;;;2.40;;
75818;SDS011;64453;51.944;9.796;2024-02-21T14:26:05;2.80;;;2.00;;
75818;SDS011;64453;51.944;9.796;2024-02-21T14:28:32;3.80;;;1.87;;
75818;SDS011;64453;51.944;9.796;2024-02-21T14:30:59;5.40;;;2.00;;
75818;SDS011;64453;51.944;9.796;2024-02-21T14:33:28;1.87;;;1.70;;
75818;SDS011;64453;51.944;9.796;2024-02-21T14:35:56;2.63;;;1.50;;
75818;SDS011;64453;51.944;9.796;2024-02-21T14:38:24;2.00;;;1.80;;
75818;SDS011;64453;51.944;9.796;2024-02-21T14:40:52;5.00;;;2.43;;
75818;SDS011;64453;51.944;9.796;2024-02-21T14:43:19;2.63;;;2.00;;
75818;SDS011;64453;51.944;9.796;2024-02-21T14:45:48;7.60;;;2.40;;
75818;SDS011;64453;51.944;9.796;2024-02-21T14:48:16;6.73;;;2.17;;
75818;SDS011;64453;51.944;9.796;2024-02-21T14:50:45;5.37;;;2.33;;
75818;SDS011;64453;51.944;9.796;2024-02-21T15:01:24;4.83;;;2.30;;
75818;SDS011;64453;51.944;9.796;2024-02-21T15:03:51;4.80;;;2.60;;
75818;SDS011;64453;51.944;9.796;2024-02-21T15:06:18;4.40;;;2.43;;
75818;SDS011;64453;51.944;9.796;2024-02-21T15:08:46;4.90;;;1.80;;
75818;SDS011;64453;51.944;9.796;2024-02-21T15:11:15;7.20;;;3.23;;
75818;SDS011;64453;51.944;9.796;2024-02-21T15:24:48;8.50;;;3.23;;
75818;SDS011;64453;51.944;9.796;2024-02-21T15:27:15;4.97;;;2.00;;
75818;SDS011;64453;51.944;9.796;2024-02-21T15:29:42;7.60;;;3.23;;
75818;SDS011;64453;51.944;9.796;2024-02-21T15:32:09;4.47;;;2.97;;
75818;SDS011;64453;51.944;9.796;2024-02-21T15:34:37;4.90;;;2.40;;
75818;SDS011;64453;51.944;9.796;2024-02-21T15:37:04;3.87;;;2.70;;
75818;SDS011;64453;51.944;9.796;2024-02-21T15:39:33;4.60;;;2.87;;
75818;SDS011;64453;51.944;9.796;2024-02-21T15:42:02;6.27;;;2.80;;